createdAt,value
2022-09-28T00:05:00.653Z,7.7
2022-09-28T00:25:05.424Z,7.6
2022-09-28T00:35:07.111Z,7.6
2022-09-28T00:45:08.822Z,7.5
2022-09-28T01:05:13.109Z,7.3
2022-09-28T01:15:15.468Z,7.2
2022-09-28T01:35:20.307Z,7.2
2022-09-28T01:45:22.749Z,7.2
2022-09-28T01:55:24.904Z,7.1
2022-09-28T02:05:27.042Z,7.1
2022-09-28T02:15:29.514Z,7.1
2022-09-28T02:25:31.332Z,7.1
2022-09-28T02:45:35.610Z,7.1
2022-09-28T03:35:46.466Z,7.1
2022-09-28T03:55:50.426Z,7.1
2022-09-28T04:35:58.480Z,7.2
2022-09-28T05:16:07.133Z,7.2
2022-09-28T05:26:09.711Z,7.2
2022-09-28T05:36:12.030Z,7.2
2022-09-28T05:46:14.465Z,7.2
2022-09-28T05:56:16.533Z,7.3
2022-09-28T06:06:18.762Z,7.3
2022-09-28T06:26:22.938Z,7.5
2022-09-28T06:36:25.279Z,7.6
2022-09-28T06:56:32.829Z,7.5
2022-09-28T07:06:32.104Z,7.6
2022-09-28T07:16:48.356Z,7.7
2022-09-28T07:26:36.467Z,7.8
2022-09-28T07:36:38.983Z,7.8
2022-09-28T07:56:42.634Z,8
2022-09-28T08:06:44.971Z,8.1
2022-09-28T08:16:47.483Z,8.1
2022-09-28T08:36:51.328Z,8.3
2022-09-28T08:46:53.155Z,8.5
2022-09-28T09:17:00.260Z,8.9
2022-09-28T09:47:06.032Z,9.5
2022-09-28T09:57:07.858Z,9.4
2022-09-28T10:07:10.402Z,9.4
2022-09-28T10:27:14.990Z,9.7
2022-09-28T10:37:16.794Z,9.6
2022-09-28T10:47:18.520Z,9.9
2022-09-28T10:57:20.680Z,9.9
2022-09-28T11:07:22.563Z,10.3
2022-09-28T11:17:24.294Z,10.6
2022-09-28T11:27:26.541Z,11.1
2022-09-28T12:07:42.594Z,11.4
2022-09-28T12:27:47.461Z,11.8
2022-09-28T12:37:52.587Z,11.7
2022-09-28T12:47:51.676Z,11.7
2022-09-28T12:57:53.601Z,11.4
2022-09-28T13:07:55.493Z,11.6
2022-09-28T13:27:59.166Z,11.4
2022-09-28T13:38:01.548Z,11.6
2022-09-28T13:58:06.296Z,11.8
2022-09-28T14:08:08.520Z,11.9
2022-09-28T14:18:10.750Z,12.3
2022-09-28T14:28:12.867Z,12.1
2022-09-28T14:38:14.927Z,11.9
2022-09-28T14:48:16.864Z,12.5
2022-09-28T14:58:18.944Z,12.4
2022-09-28T15:08:21.403Z,13.3
2022-09-28T15:18:23.877Z,13.9
2022-09-28T15:28:25.757Z,13.6
2022-09-28T15:38:28.101Z,12.7
2022-09-28T15:48:30.592Z,12.2
2022-09-28T16:08:34.057Z,12
2022-09-28T16:18:36.598Z,11.7
2022-09-28T16:28:38.663Z,11.6
2022-09-28T16:38:40.811Z,11.4
2022-09-28T16:58:44.883Z,11
2022-09-28T17:08:46.566Z,10.9
2022-09-28T17:28:50.432Z,10.7
2022-09-28T17:48:54.274Z,10.5
2022-09-28T17:58:56.494Z,10.4
2022-09-28T18:08:58.290Z,10.3
2022-09-28T18:19:00.725Z,10.2
2022-09-28T18:29:03.252Z,10.1
2022-09-28T18:39:05.088Z,9.9
2022-09-28T18:49:07.645Z,9.7
2022-09-28T18:59:12.250Z,9.5
2022-09-28T19:09:11.817Z,9.5
2022-09-28T19:19:13.679Z,9.4
2022-09-28T19:29:15.899Z,9.3
2022-09-28T19:59:22.980Z,8.7
2022-09-28T20:09:25.347Z,8.5
2022-09-28T20:19:27.159Z,8.3
2022-09-28T20:29:29.794Z,8.3
2022-09-28T20:39:31.909Z,8.3
2022-09-28T20:49:33.873Z,8.4
2022-09-28T20:59:35.635Z,8.4
2022-09-28T21:09:38.042Z,8.4
2022-09-28T21:19:39.713Z,8.5
2022-09-28T21:29:41.930Z,8.5
2022-09-28T21:49:46.157Z,8.6
2022-09-28T21:59:48.621Z,8.5
2022-09-28T22:09:53.366Z,8.4
2022-09-28T22:19:53.080Z,8.4
2022-09-28T22:29:55.649Z,8.3
2022-09-28T22:39:57.611Z,8.1
2022-09-28T22:49:59.617Z,7.8
2022-09-28T23:00:02.056Z,7.6
2022-09-28T23:10:04.227Z,7.4
2022-09-28T23:20:06.406Z,7.4
2022-09-28T23:30:08.895Z,7.2
2022-09-28T23:40:10.543Z,7.1
2022-09-28T23:50:12.775Z,6.9
